createdAt,value
2017-11-21T00:00:27.512Z,5.10
2017-11-21T00:02:55.008Z,5.20
2017-11-21T00:05:23.291Z,5.10
2017-11-21T00:07:50.805Z,5.10
2017-11-21T00:10:18.324Z,5.20
2017-11-21T00:12:45.828Z,5.20
2017-11-21T00:15:13.344Z,5.10
2017-11-21T00:17:40.849Z,5.10
2017-11-21T00:20:08.364Z,5.10
2017-11-21T00:22:35.865Z,5.10
2017-11-21T00:25:03.392Z,5.10
2017-11-21T00:27:30.899Z,5.10
2017-11-21T00:29:58.441Z,5.20
2017-11-21T00:32:25.934Z,5.30
2017-11-21T00:34:53.467Z,5.30
2017-11-21T00:37:20.973Z,5.30
2017-11-21T00:39:49.242Z,5.20
2017-11-21T00:42:16.752Z,5.20
2017-11-21T00:44:44.253Z,5.30
2017-11-21T00:47:11.778Z,5.30
2017-11-21T00:49:39.281Z,5.30
2017-11-21T00:52:07.575Z,5.40
2017-11-21T00:54:35.838Z,5.40
2017-11-21T00:57:04.129Z,5.40
2017-11-21T00:59:32.391Z,5.40
2017-11-21T01:02:00.668Z,5.40
2017-11-21T01:04:28.932Z,5.40
2017-11-21T01:06:56.475Z,5.40
2017-11-21T01:09:23.967Z,5.50
2017-11-21T01:11:52.232Z,5.40
2017-11-21T01:14:20.513Z,5.40
2017-11-21T01:16:49.030Z,5.20
2017-11-21T01:19:16.539Z,5.20
2017-11-21T01:21:44.036Z,5.10
2017-11-21T01:24:11.552Z,5.00
2017-11-21T01:26:39.058Z,4.90
2017-11-21T01:29:06.570Z,4.80
2017-11-21T01:31:34.069Z,4.70
2017-11-21T01:34:01.608Z,4.80
2017-11-21T01:36:29.858Z,4.70
2017-11-21T01:38:57.361Z,4.70
2017-11-21T01:41:24.884Z,4.70
2017-11-21T01:43:52.376Z,4.70
2017-11-21T01:46:19.887Z,4.70
2017-11-21T01:48:47.387Z,4.70
2017-11-21T01:51:14.901Z,4.70
2017-11-21T01:53:42.400Z,4.70
2017-11-21T01:56:09.916Z,4.70
2017-11-21T01:58:37.407Z,4.70
2017-11-21T02:01:05.687Z,4.80
2017-11-21T02:03:33.186Z,4.80
2017-11-21T02:06:00.705Z,4.80
2017-11-21T02:08:28.208Z,4.80
2017-11-21T02:10:55.733Z,4.80
2017-11-21T02:13:23.232Z,4.80
2017-11-21T02:15:50.747Z,4.80
2017-11-21T02:18:18.275Z,4.90
2017-11-21T02:20:46.564Z,4.90
2017-11-21T02:23:14.844Z,4.80
2017-11-21T02:25:42.369Z,4.80
2017-11-21T02:28:09.877Z,4.80
2017-11-21T02:30:37.377Z,4.70
2017-11-21T02:33:04.892Z,4.70
2017-11-21T02:35:32.383Z,4.60
2017-11-21T02:37:59.906Z,4.60
2017-11-21T02:40:27.404Z,4.60
2017-11-21T02:42:54.926Z,4.60
2017-11-21T02:45:22.426Z,4.50
2017-11-21T02:47:49.935Z,4.60
2017-11-21T02:50:17.460Z,4.60
2017-11-21T02:52:45.734Z,4.60
2017-11-21T02:55:13.248Z,4.50
2017-11-21T02:57:40.744Z,4.50
2017-11-21T03:00:08.258Z,4.50
2017-11-21T03:02:35.755Z,4.50
2017-11-21T03:05:03.273Z,4.50
2017-11-21T03:07:30.768Z,4.50
2017-11-21T03:09:58.288Z,4.60
2017-11-21T03:12:25.784Z,4.60
2017-11-21T03:14:53.287Z,4.60
2017-11-21T03:17:20.801Z,4.60
2017-11-21T03:19:48.296Z,4.60
2017-11-21T03:22:27.716Z,4.50
2017-11-21T03:25:07.768Z,4.50
2017-11-21T03:27:36.062Z,4.60
2017-11-21T03:30:03.559Z,4.50
2017-11-21T03:32:31.089Z,4.50
2017-11-21T03:34:58.584Z,4.60
2017-11-21T03:37:26.099Z,4.60
2017-11-21T03:39:53.601Z,4.50
2017-11-21T03:42:21.117Z,4.50
2017-11-21T03:44:48.653Z,4.50
2017-11-21T03:47:16.912Z,4.40
2017-11-21T03:49:44.428Z,4.40
2017-11-21T03:52:11.924Z,4.40
2017-11-21T03:54:39.436Z,4.40
2017-11-21T03:57:06.941Z,4.40
2017-11-21T03:59:34.462Z,4.30
2017-11-21T04:02:01.972Z,4.30
2017-11-21T04:04:30.255Z,4.30
2017-11-21T04:06:58.520Z,4.20
2017-11-21T04:09:26.032Z,4.20
2017-11-21T04:11:53.532Z,4.20
2017-11-21T04:14:21.048Z,4.20
2017-11-21T04:16:48.556Z,4.20
2017-11-21T04:19:16.825Z,4.20
2017-11-21T04:21:44.341Z,4.20
2017-11-21T04:24:11.846Z,4.20
2017-11-21T04:26:40.131Z,4.20
2017-11-21T04:29:08.392Z,4.20
2017-11-21T04:31:36.677Z,4.20
2017-11-21T04:34:04.948Z,4.30
2017-11-21T04:36:32.465Z,4.20
2017-11-21T04:38:59.959Z,4.30
2017-11-21T04:41:28.252Z,4.30
2017-11-21T04:43:56.515Z,4.30
2017-11-21T04:46:24.027Z,4.30
2017-11-21T04:48:51.527Z,4.30
2017-11-21T04:51:19.820Z,4.40
2017-11-21T04:53:48.095Z,4.40
2017-11-21T04:56:16.357Z,4.40
2017-11-21T04:58:44.660Z,4.50
2017-11-21T05:01:12.161Z,4.50
2017-11-21T05:03:40.444Z,4.50
2017-11-21T05:06:07.936Z,4.50
2017-11-21T05:08:36.212Z,4.50
2017-11-21T05:11:04.482Z,4.50
2017-11-21T05:13:32.771Z,4.60
2017-11-21T05:16:01.041Z,4.60
2017-11-21T05:18:29.320Z,4.60
2017-11-21T05:20:57.584Z,4.60
2017-11-21T05:23:25.877Z,4.60
2017-11-21T05:25:53.385Z,4.60
2017-11-21T05:28:21.644Z,4.70
2017-11-21T05:30:49.156Z,4.70
2017-11-21T05:33:29.301Z,4.60
2017-11-21T05:35:56.820Z,4.60
2017-11-21T05:38:24.320Z,4.60
2017-11-21T05:40:51.832Z,4.70
2017-11-21T05:43:19.328Z,4.80
2017-11-21T05:45:46.841Z,4.80
2017-11-21T05:48:14.347Z,4.80
2017-11-21T05:50:41.857Z,4.90
2017-11-21T05:53:09.372Z,5.00
2017-11-21T05:55:37.652Z,4.90
2017-11-21T05:58:05.937Z,5.00
2017-11-21T06:00:34.216Z,5.00
2017-11-21T06:03:02.496Z,5.00
2017-11-21T06:05:29.999Z,5.00
2017-11-21T06:07:57.520Z,5.00
2017-11-21T06:10:25.024Z,5.00
2017-11-21T06:12:52.532Z,5.00
2017-11-21T06:15:20.023Z,4.90
2017-11-21T06:17:47.556Z,4.90
2017-11-21T06:20:15.051Z,5.00
2017-11-21T06:22:42.546Z,4.90
2017-11-21T06:25:10.837Z,5.00
2017-11-21T06:27:38.339Z,5.00
2017-11-21T06:30:05.856Z,5.00
2017-11-21T06:32:33.359Z,5.00
2017-11-21T06:35:00.880Z,5.00
2017-11-21T06:37:28.380Z,5.00
2017-11-21T06:39:55.900Z,5.00
2017-11-21T06:42:23.400Z,5.10
2017-11-21T06:44:50.917Z,5.10
2017-11-21T06:47:18.417Z,5.10
2017-11-21T06:49:45.914Z,5.10
2017-11-21T06:52:13.433Z,5.10
2017-11-21T06:54:40.927Z,5.10
2017-11-21T06:57:09.208Z,5.10
2017-11-21T06:59:36.704Z,5.10
2017-11-21T07:02:04.240Z,5.10
2017-11-21T07:04:31.738Z,5.10
2017-11-21T07:06:59.240Z,5.10
2017-11-21T07:09:28.697Z,5.20
2017-11-21T07:11:56.192Z,5.20
2017-11-21T07:14:24.471Z,5.30
2017-11-21T07:16:52.731Z,5.40
2017-11-21T07:19:21.041Z,5.40
2017-11-21T07:21:48.549Z,5.40
2017-11-21T07:24:16.041Z,5.40
2017-11-21T07:26:44.320Z,5.70
2017-11-21T07:29:11.821Z,5.70
2017-11-21T07:31:39.336Z,5.80
2017-11-21T07:34:06.836Z,5.90
2017-11-21T07:36:34.344Z,5.90
2017-11-21T07:39:02.613Z,5.90
2017-11-21T07:41:30.917Z,6.00
2017-11-21T07:43:58.421Z,6.00
2017-11-21T07:46:25.916Z,5.90
2017-11-21T07:48:54.192Z,6.00
2017-11-21T07:51:22.457Z,6.00
2017-11-21T07:53:50.745Z,6.10
2017-11-21T07:56:18.248Z,6.10
2017-11-21T07:58:46.550Z,6.20
2017-11-21T08:01:14.048Z,6.20
2017-11-21T08:03:41.558Z,6.20
2017-11-21T08:06:09.068Z,6.30
2017-11-21T08:08:36.563Z,6.30
2017-11-21T08:11:04.078Z,6.40
2017-11-21T08:13:31.571Z,6.40
2017-11-21T08:15:59.112Z,6.50
2017-11-21T08:18:26.604Z,6.50
2017-11-21T08:20:54.112Z,6.50
2017-11-21T08:23:21.625Z,6.60
2017-11-21T08:25:49.120Z,6.60
2017-11-21T08:28:16.636Z,6.60
2017-11-21T08:30:44.137Z,6.70
2017-11-21T08:33:11.653Z,6.60
2017-11-21T08:35:39.157Z,6.70
2017-11-21T08:38:06.693Z,6.80
2017-11-21T08:40:34.960Z,7.00
2017-11-21T08:43:02.465Z,6.90
2017-11-21T08:45:29.984Z,7.00
2017-11-21T08:47:58.250Z,7.10
2017-11-21T08:50:26.536Z,7.10
2017-11-21T08:52:54.797Z,7.10
2017-11-21T08:55:22.312Z,7.10
2017-11-21T08:57:49.804Z,7.20
2017-11-21T09:00:17.317Z,7.20
2017-11-21T09:02:44.812Z,7.20
2017-11-21T09:05:12.334Z,7.20
2017-11-21T09:07:39.832Z,7.10
2017-11-21T09:10:07.405Z,7.10
2017-11-21T09:12:34.879Z,7.10
2017-11-21T09:15:03.139Z,7.20
2017-11-21T09:17:30.661Z,7.20
2017-11-21T09:19:58.160Z,7.40
2017-11-21T09:22:25.684Z,7.50
2017-11-21T09:24:53.188Z,7.40
2017-11-21T09:27:21.466Z,7.50
2017-11-21T09:29:49.727Z,7.50
2017-11-21T09:32:17.241Z,7.50
2017-11-21T09:34:44.740Z,7.70
2017-11-21T09:37:12.260Z,7.80
2017-11-21T09:39:39.760Z,7.90
2017-11-21T09:42:08.048Z,7.90
2017-11-21T09:44:36.307Z,7.90
2017-11-21T09:47:03.853Z,7.90
2017-11-21T09:49:31.352Z,7.80
2017-11-21T09:51:58.849Z,7.70
2017-11-21T09:54:26.368Z,7.60
2017-11-21T09:56:53.864Z,7.70
2017-11-21T09:59:21.384Z,7.60
2017-11-21T10:01:48.876Z,7.80
2017-11-21T10:04:16.392Z,7.80
2017-11-21T10:06:44.656Z,7.80
2017-11-21T10:09:12.959Z,7.90
2017-11-21T10:11:40.457Z,7.90
2017-11-21T10:14:07.959Z,7.90
2017-11-21T10:16:36.240Z,7.90
2017-11-21T10:19:04.505Z,8.00
2017-11-21T10:21:32.792Z,8.10
2017-11-21T10:24:01.060Z,8.00
2017-11-21T10:26:29.351Z,8.10
2017-11-21T10:28:56.849Z,8.10
2017-11-21T10:31:24.345Z,8.20
2017-11-21T10:33:52.628Z,8.20
2017-11-21T10:36:20.892Z,8.30
2017-11-21T10:38:48.408Z,8.30
2017-11-21T10:41:15.904Z,8.30
2017-11-21T10:43:43.439Z,8.40
2017-11-21T10:46:10.940Z,8.50
2017-11-21T10:48:39.201Z,8.60
2017-11-21T10:51:07.481Z,8.70
2017-11-21T10:53:35.745Z,8.80
2017-11-21T10:56:03.268Z,8.80
2017-11-21T10:58:31.541Z,9.00
2017-11-21T11:00:59.065Z,9.00
2017-11-21T11:03:30.359Z,9.00
2017-11-21T11:06:00.488Z,9.10
2017-11-21T11:08:28.073Z,9.10
2017-11-21T11:10:56.332Z,9.20
2017-11-21T11:13:23.848Z,9.10
2017-11-21T11:15:51.349Z,9.20
2017-11-21T11:18:18.865Z,9.10
2017-11-21T11:20:46.364Z,9.00
2017-11-21T11:23:13.892Z,9.00
2017-11-21T11:25:41.394Z,9.00
2017-11-21T11:28:09.664Z,9.00
2017-11-21T11:30:37.172Z,9.00
2017-11-21T11:33:04.663Z,8.80
2017-11-21T11:35:32.177Z,8.70
2017-11-21T11:37:59.671Z,8.70
2017-11-21T11:40:27.208Z,8.70
2017-11-21T11:42:54.700Z,8.80
2017-11-21T11:45:22.201Z,8.80
2017-11-21T11:47:49.738Z,8.80
2017-11-21T11:50:18.000Z,8.90
2017-11-21T11:52:45.512Z,8.90
2017-11-21T11:55:13.006Z,8.90
2017-11-21T11:57:40.526Z,8.70
2017-11-21T12:00:08.020Z,8.60
2017-11-21T12:02:35.540Z,8.60
2017-11-21T12:05:03.035Z,8.60
2017-11-21T12:07:30.556Z,8.50
2017-11-21T12:09:58.059Z,8.40
2017-11-21T12:12:25.567Z,8.50
2017-11-21T12:14:53.109Z,8.50
2017-11-21T12:17:21.376Z,8.30
2017-11-21T12:19:49.661Z,8.30
2017-11-21T12:22:17.166Z,8.30
2017-11-21T12:24:44.680Z,8.30
2017-11-21T12:27:12.171Z,8.30
2017-11-21T12:29:39.708Z,8.20
2017-11-21T12:32:07.213Z,8.10
2017-11-21T12:34:34.723Z,8.10
2017-11-21T12:37:02.220Z,8.10
2017-11-21T12:39:29.746Z,8.10
2017-11-21T12:41:57.248Z,8.00
2017-11-21T12:44:24.782Z,8.00
2017-11-21T12:46:52.285Z,7.90
2017-11-21T12:49:20.553Z,7.80
2017-11-21T12:51:48.064Z,7.80
2017-11-21T12:54:15.555Z,7.80
2017-11-21T12:56:43.081Z,7.80
2017-11-21T12:59:10.581Z,7.70
2017-11-21T13:01:38.093Z,7.70
2017-11-21T13:04:05.592Z,7.70
2017-11-21T13:06:33.109Z,7.70
2017-11-21T13:09:00.612Z,7.60
2017-11-21T13:11:28.133Z,7.70
2017-11-21T13:13:55.649Z,7.70
2017-11-21T13:16:23.928Z,7.60
2017-11-21T13:18:51.433Z,7.60
2017-11-21T13:23:50.395Z,7.70
2017-11-21T13:26:18.700Z,7.80
2017-11-21T13:28:46.201Z,7.80
2017-11-21T13:31:13.710Z,7.80
2017-11-21T13:33:41.225Z,8.00
2017-11-21T13:36:08.728Z,8.00
2017-11-21T13:38:36.235Z,8.00
2017-11-21T13:41:03.742Z,8.10
2017-11-21T13:43:31.252Z,8.20
2017-11-21T13:45:58.749Z,8.30
2017-11-21T13:48:26.267Z,8.30
2017-11-21T13:50:53.763Z,8.40
2017-11-21T13:53:21.282Z,8.50
2017-11-21T13:55:48.778Z,8.60
2017-11-21T13:58:16.301Z,8.70
2017-11-21T14:00:44.573Z,8.90
2017-11-21T14:03:12.102Z,8.90
2017-11-21T14:05:39.604Z,9.00
2017-11-21T14:08:07.868Z,9.10
2017-11-21T14:10:35.382Z,9.10
2017-11-21T14:13:02.883Z,9.20
2017-11-21T14:15:30.407Z,9.20
2017-11-21T14:17:58.672Z,9.20
2017-11-21T14:20:26.188Z,9.30
2017-11-21T14:22:54.464Z,9.20
2017-11-21T14:25:22.757Z,9.20
2017-11-21T14:27:50.266Z,9.20
2017-11-21T14:30:17.784Z,9.20
2017-11-21T14:32:45.276Z,9.30
2017-11-21T14:35:12.808Z,9.40
2017-11-21T14:37:40.309Z,9.40
2017-11-21T14:40:07.801Z,9.40
2017-11-21T14:42:36.081Z,9.50
2017-11-21T14:45:03.605Z,9.40
2017-11-21T14:47:31.118Z,9.50
2017-11-21T14:49:58.637Z,9.60
2017-11-21T14:52:26.142Z,9.50
2017-11-21T14:54:53.642Z,9.60
2017-11-21T14:57:21.160Z,9.60
2017-11-21T14:59:48.656Z,9.60
2017-11-21T15:02:16.176Z,9.60
2017-11-21T15:04:43.677Z,9.60
2017-11-21T15:07:11.197Z,9.60
2017-11-21T15:09:38.692Z,9.60
2017-11-21T15:12:06.188Z,9.60
2017-11-21T15:14:33.708Z,9.50
2017-11-21T15:17:01.195Z,9.70
2017-11-21T15:19:28.716Z,9.70
2017-11-21T15:21:56.217Z,9.70
2017-11-21T15:24:23.732Z,9.70
2017-11-21T15:26:51.228Z,9.80
2017-11-21T15:29:18.744Z,9.70
2017-11-21T15:31:46.239Z,9.70
2017-11-21T15:34:14.521Z,9.70
2017-11-21T15:36:42.022Z,9.70
2017-11-21T15:39:09.557Z,9.90
2017-11-21T15:41:37.048Z,9.80
2017-11-21T15:44:04.539Z,9.90
2017-11-21T15:46:32.815Z,9.90
2017-11-21T15:49:01.080Z,9.90
2017-11-21T15:51:29.364Z,9.90
2017-11-21T15:53:57.624Z,9.90
2017-11-21T15:56:25.440Z,9.80
2017-11-21T15:58:52.948Z,10.00
2017-11-21T16:01:20.473Z,9.90
2017-11-21T16:03:48.732Z,9.90
2017-11-21T16:06:16.248Z,9.90
2017-11-21T16:08:44.512Z,9.90
2017-11-21T16:11:12.024Z,9.90
2017-11-21T16:13:39.529Z,10.00
2017-11-21T16:16:07.065Z,10.00
2017-11-21T16:18:34.568Z,10.10
2017-11-21T16:21:02.836Z,10.20
2017-11-21T16:23:31.123Z,10.20
2017-11-21T16:25:59.402Z,10.10
2017-11-21T16:28:27.691Z,10.10
2017-11-21T16:30:55.203Z,10.10
2017-11-21T16:33:22.976Z,10.10
2017-11-21T16:35:50.481Z,10.00
2017-11-21T16:38:18.008Z,10.00
2017-11-21T16:40:46.264Z,9.90
2017-11-21T16:43:13.784Z,10.00
2017-11-21T16:45:41.285Z,9.90
2017-11-21T16:48:09.577Z,9.90
2017-11-21T16:50:37.839Z,9.90
2017-11-21T16:53:05.359Z,9.90
2017-11-21T16:55:32.864Z,9.90
2017-11-21T16:58:01.493Z,9.90
2017-11-21T17:00:29.004Z,9.80
2017-11-21T17:02:57.263Z,9.90
2017-11-21T17:05:24.781Z,9.90
2017-11-21T17:07:52.541Z,9.90
2017-11-21T17:10:20.052Z,10.00
2017-11-21T17:12:47.543Z,9.90
2017-11-21T17:15:15.056Z,9.90
2017-11-21T17:17:42.559Z,10.10
2017-11-21T17:20:10.081Z,10.10
2017-11-21T17:22:37.588Z,10.00
2017-11-21T17:25:05.112Z,10.00
2017-11-21T17:27:33.387Z,10.00
2017-11-21T17:30:01.688Z,10.10
2017-11-21T17:32:29.198Z,10.10
2017-11-21T17:34:56.709Z,10.10
2017-11-21T17:37:24.244Z,10.10
2017-11-21T17:39:52.517Z,10.10
2017-11-21T17:42:20.811Z,10.00
2017-11-21T17:44:48.319Z,10.00
2017-11-21T17:47:15.845Z,10.10
2017-11-21T17:49:43.360Z,10.10
2017-11-21T17:52:11.645Z,10.10
2017-11-21T17:54:39.155Z,10.10
2017-11-21T17:57:06.676Z,10.10
2017-11-21T17:59:34.180Z,10.00
2017-11-21T18:02:01.700Z,10.10
2017-11-21T18:04:29.208Z,10.10
2017-11-21T18:06:56.712Z,10.10
2017-11-21T18:09:24.233Z,10.20
2017-11-21T18:11:51.741Z,10.10
2017-11-21T18:14:19.265Z,10.10
2017-11-21T18:16:47.544Z,10.20
2017-11-21T18:19:15.828Z,10.10
2017-11-21T18:21:44.097Z,10.10
2017-11-21T18:24:12.383Z,10.20
2017-11-21T18:26:39.892Z,10.20
2017-11-21T18:29:07.417Z,10.20
2017-11-21T18:31:34.920Z,10.30
2017-11-21T18:34:02.427Z,10.30
2017-11-21T18:36:29.949Z,10.30
2017-11-21T18:38:57.453Z,10.20
2017-11-21T18:41:24.981Z,10.20
2017-11-21T18:43:52.501Z,10.10
2017-11-21T18:46:20.791Z,10.00
2017-11-21T18:48:48.288Z,10.00
2017-11-21T18:51:15.797Z,10.10
2017-11-21T18:53:43.321Z,10.10
2017-11-21T18:56:10.819Z,10.00
2017-11-21T18:58:38.347Z,9.90
2017-11-21T19:01:05.848Z,9.90
2017-11-21T19:03:33.363Z,9.90
2017-11-21T19:06:00.855Z,9.90
2017-11-21T19:08:28.365Z,9.80
2017-11-21T19:10:55.871Z,9.80
2017-11-21T19:13:23.384Z,9.80
2017-11-21T19:15:50.885Z,9.80
2017-11-21T19:18:18.380Z,9.80
2017-11-21T19:20:45.901Z,9.90
2017-11-21T19:23:13.401Z,9.90
2017-11-21T19:25:40.921Z,9.80
2017-11-21T19:28:08.416Z,9.90
2017-11-21T19:30:35.928Z,9.80
2017-11-21T19:33:03.428Z,9.90
2017-11-21T19:35:30.953Z,9.90
2017-11-21T19:37:58.457Z,10.00
2017-11-21T19:40:25.988Z,9.90
2017-11-21T19:42:54.244Z,9.70
2017-11-21T19:45:21.739Z,9.70
2017-11-21T19:47:49.258Z,9.70
2017-11-21T19:50:16.751Z,9.80
2017-11-21T19:52:44.272Z,9.80
2017-11-21T19:55:11.767Z,9.70
2017-11-21T19:57:39.281Z,9.80
2017-11-21T20:00:06.780Z,9.80
2017-11-21T20:02:34.301Z,9.70
2017-11-21T20:05:01.804Z,9.70
2017-11-21T20:07:29.320Z,9.70
2017-11-21T20:09:56.810Z,9.70
2017-11-21T20:12:24.316Z,9.60
2017-11-21T20:14:51.827Z,9.50
2017-11-21T20:17:20.091Z,9.60
2017-11-21T20:19:48.373Z,9.70
2017-11-21T20:22:16.679Z,9.70
2017-11-21T20:24:44.192Z,9.70
2017-11-21T20:27:12.764Z,9.60
2017-11-21T20:29:41.160Z,9.70
2017-11-21T20:32:09.428Z,9.60
2017-11-21T20:34:36.941Z,9.50
2017-11-21T20:37:04.445Z,9.60
2017-11-21T20:39:31.969Z,9.60
2017-11-21T20:41:59.464Z,9.60
2017-11-21T20:44:27.795Z,9.60
2017-11-21T20:46:55.312Z,9.60
2017-11-21T20:49:23.583Z,9.60
2017-11-21T20:51:51.865Z,9.60
2017-11-21T20:54:20.132Z,9.70
2017-11-21T20:56:55.323Z,9.50
2017-11-21T20:59:26.408Z,9.50
2017-11-21T21:01:55.003Z,9.50
2017-11-21T21:04:23.552Z,9.60
2017-11-21T21:06:56.723Z,9.60
2017-11-21T21:09:25.482Z,9.60
2017-11-21T21:11:53.924Z,9.60
2017-11-21T21:14:24.066Z,9.40
2017-11-21T21:16:52.801Z,9.50
2017-11-21T21:19:21.374Z,9.40
2017-11-21T21:21:51.725Z,9.50
2017-11-21T21:24:20.907Z,9.50
2017-11-21T21:26:59.034Z,9.40
2017-11-21T21:29:26.755Z,9.50
2017-11-21T21:31:54.829Z,9.60
2017-11-21T21:34:24.963Z,9.50
2017-11-21T21:36:52.892Z,9.50
2017-11-21T21:39:21.361Z,9.50
2017-11-21T21:41:49.666Z,9.40
2017-11-21T21:44:17.187Z,9.40
2017-11-21T21:46:47.278Z,9.40
2017-11-21T21:49:15.847Z,9.50
2017-11-21T21:51:50.990Z,9.50
2017-11-21T21:54:22.340Z,9.50
2017-11-21T21:56:55.117Z,9.50
2017-11-21T21:59:24.968Z,9.60
2017-11-21T22:01:54.619Z,9.60
2017-11-21T22:04:23.553Z,9.60
2017-11-21T22:06:51.056Z,9.50
2017-11-21T22:09:23.649Z,9.60
2017-11-21T22:11:53.077Z,9.60
2017-11-21T22:14:22.349Z,9.40
2017-11-21T22:16:49.900Z,9.40
2017-11-21T22:19:18.277Z,9.20
2017-11-21T22:21:46.640Z,9.10
2017-11-21T22:24:14.940Z,9.00
2017-11-21T22:26:43.560Z,9.00
2017-11-21T22:29:12.248Z,8.90
2017-11-21T22:31:39.807Z,8.90
2017-11-21T22:34:07.304Z,8.80
2017-11-21T22:36:34.841Z,8.90
2017-11-21T22:39:03.119Z,8.90
2017-11-21T22:41:31.487Z,8.90
2017-11-21T22:43:59.081Z,8.90
2017-11-21T22:46:26.626Z,8.90
2017-11-21T22:48:55.480Z,8.80
2017-11-21T22:51:23.016Z,8.80
2017-11-21T22:53:50.512Z,8.80
2017-11-21T22:56:18.007Z,8.80
2017-11-21T22:58:45.534Z,8.80
2017-11-21T23:01:13.797Z,8.80
2017-11-21T23:03:41.955Z,8.80
2017-11-21T23:06:09.468Z,8.80
2017-11-21T23:08:36.981Z,8.70
2017-11-21T23:11:04.484Z,8.80
2017-11-21T23:13:32.005Z,8.80
2017-11-21T23:15:59.499Z,8.80
2017-11-21T23:18:27.017Z,8.70
2017-11-21T23:20:54.525Z,8.60
2017-11-21T23:23:22.044Z,8.60
2017-11-21T23:25:49.549Z,8.60
2017-11-21T23:28:17.069Z,8.70
2017-11-21T23:30:45.332Z,8.70
2017-11-21T23:33:12.838Z,8.70
2017-11-21T23:35:40.355Z,8.70
2017-11-21T23:38:08.615Z,8.60
2017-11-21T23:40:36.132Z,8.50
2017-11-21T23:43:03.641Z,8.50
2017-11-21T23:45:31.184Z,8.50
2017-11-21T23:47:58.689Z,8.50
2017-11-21T23:50:26.188Z,8.40
2017-11-21T23:52:53.709Z,8.40
2017-11-21T23:55:21.216Z,8.50
2017-11-21T23:57:48.728Z,8.50
